sensor_id;sensor_type;location;lat;lon;timestamp;P1;durP1;ratioP1;P2;durP2;ratioP2
13693;SDS011;6919;52.344;14.518;2023-06-19T00:01:58;2.57;;;2.00;;
13693;SDS011;6919;52.344;14.518;2023-06-19T00:04:27;2.40;;;2.17;;
13693;SDS011;6919;52.344;14.518;2023-06-19T00:06:55;2.80;;;2.10;;
13693;SDS011;6919;52.344;14.518;2023-06-19T00:09:23;3.43;;;2.27;;
13693;SDS011;6919;52.344;14.518;2023-06-19T00:11:52;3.30;;;2.30;;
13693;SDS011;6919;52.344;14.518;2023-06-19T00:14:20;2.33;;;2.00;;
13693;SDS011;6919;52.344;14.518;2023-06-19T00:16:50;2.97;;;2.20;;
13693;SDS011;6919;52.344;14.518;2023-06-19T00:19:18;2.13;;;1.97;;
13693;SDS011;6919;52.344;14.518;2023-06-19T00:21:46;2.73;;;2.47;;
13693;SDS011;6919;52.344;14.518;2023-06-19T00:24:15;3.07;;;2.20;;
13693;SDS011;6919;52.344;14.518;2023-06-19T00:26:43;3.20;;;2.27;;
13693;SDS011;6919;52.344;14.518;2023-06-19T00:29:11;3.77;;;2.57;;
13693;SDS011;6919;52.344;14.518;2023-06-19T00:31:40;2.50;;;2.30;;
13693;SDS011;6919;52.344;14.518;2023-06-19T00:34:09;3.37;;;1.80;;
13693;SDS011;6919;52.344;14.518;2023-06-19T00:36:38;3.37;;;2.80;;
13693;SDS011;6919;52.344;14.518;2023-06-19T00:39:07;2.03;;;1.80;;
13693;SDS011;6919;52.344;14.518;2023-06-19T00:41:35;2.67;;;2.37;;
13693;SDS011;6919;52.344;14.518;2023-06-19T00:44:04;2.20;;;2.00;;
13693;SDS011;6919;52.344;14.518;2023-06-19T00:46:33;3.23;;;2.67;;
13693;SDS011;6919;52.344;14.518;2023-06-19T00:49:07;2.63;;;2.30;;
13693;SDS011;6919;52.344;14.518;2023-06-19T00:51:37;2.73;;;2.37;;
13693;SDS011;6919;52.344;14.518;2023-06-19T00:54:06;4.13;;;2.63;;
13693;SDS011;6919;52.344;14.518;2023-06-19T00:56:35;3.47;;;2.40;;
13693;SDS011;6919;52.344;14.518;2023-06-19T00:59:08;4.20;;;2.60;;
13693;SDS011;6919;52.344;14.518;2023-06-19T01:01:43;3.43;;;2.23;;
13693;SDS011;6919;52.344;14.518;2023-06-19T01:04:14;3.00;;;2.27;;
13693;SDS011;6919;52.344;14.518;2023-06-19T01:06:43;3.87;;;2.70;;
13693;SDS011;6919;52.344;14.518;2023-06-19T01:09:25;4.80;;;2.83;;
13693;SDS011;6919;52.344;14.518;2023-06-19T01:11:59;4.73;;;2.43;;
13693;SDS011;6919;52.344;14.518;2023-06-19T01:14:39;5.43;;;3.23;;
13693;SDS011;6919;52.344;14.518;2023-06-19T01:17:15;4.03;;;2.80;;
13693;SDS011;6919;52.344;14.518;2023-06-19T01:19:45;3.10;;;2.80;;
13693;SDS011;6919;52.344;14.518;2023-06-19T01:22:23;3.07;;;2.77;;
13693;SDS011;6919;52.344;14.518;2023-06-19T01:24:54;3.40;;;2.60;;
13693;SDS011;6919;52.344;14.518;2023-06-19T01:27:22;4.90;;;2.83;;
13693;SDS011;6919;52.344;14.518;2023-06-19T01:29:56;2.90;;;2.60;;
13693;SDS011;6919;52.344;14.518;2023-06-19T01:32:26;2.67;;;2.30;;
13693;SDS011;6919;52.344;14.518;2023-06-19T01:35:04;3.27;;;2.50;;
13693;SDS011;6919;52.344;14.518;2023-06-19T01:37:37;3.20;;;2.63;;
13693;SDS011;6919;52.344;14.518;2023-06-19T01:40:09;3.67;;;2.53;;
13693;SDS011;6919;52.344;14.518;2023-06-19T01:42:39;3.57;;;2.73;;
13693;SDS011;6919;52.344;14.518;2023-06-19T01:45:10;3.53;;;2.97;;
13693;SDS011;6919;52.344;14.518;2023-06-19T01:47:38;3.20;;;2.67;;
13693;SDS011;6919;52.344;14.518;2023-06-19T01:50:07;6.80;;;2.63;;
13693;SDS011;6919;52.344;14.518;2023-06-19T01:52:39;2.67;;;2.40;;
13693;SDS011;6919;52.344;14.518;2023-06-19T01:55:07;3.10;;;2.23;;
13693;SDS011;6919;52.344;14.518;2023-06-19T01:57:36;3.27;;;2.53;;
13693;SDS011;6919;52.344;14.518;2023-06-19T02:00:05;2.73;;;2.53;;
13693;SDS011;6919;52.344;14.518;2023-06-19T02:02:36;4.37;;;2.77;;
13693;SDS011;6919;52.344;14.518;2023-06-19T02:05:05;3.20;;;2.73;;
13693;SDS011;6919;52.344;14.518;2023-06-19T02:07:34;2.87;;;2.23;;
13693;SDS011;6919;52.344;14.518;2023-06-19T02:10:04;3.30;;;2.67;;
13693;SDS011;6919;52.344;14.518;2023-06-19T02:12:34;3.57;;;2.67;;
13693;SDS011;6919;52.344;14.518;2023-06-19T02:15:02;3.33;;;2.27;;
13693;SDS011;6919;52.344;14.518;2023-06-19T02:17:32;3.53;;;2.70;;
13693;SDS011;6919;52.344;14.518;2023-06-19T02:20:00;3.50;;;2.80;;
13693;SDS011;6919;52.344;14.518;2023-06-19T02:22:32;2.63;;;2.27;;
13693;SDS011;6919;52.344;14.518;2023-06-19T02:25:00;3.03;;;2.70;;
13693;SDS011;6919;52.344;14.518;2023-06-19T02:27:30;5.13;;;3.17;;
13693;SDS011;6919;52.344;14.518;2023-06-19T02:29:58;4.57;;;2.80;;
13693;SDS011;6919;52.344;14.518;2023-06-19T02:32:26;3.00;;;2.57;;
13693;SDS011;6919;52.344;14.518;2023-06-19T02:34:54;2.73;;;2.43;;
13693;SDS011;6919;52.344;14.518;2023-06-19T02:37:23;4.03;;;2.40;;
13693;SDS011;6919;52.344;14.518;2023-06-19T02:39:51;2.57;;;2.27;;
13693;SDS011;6919;52.344;14.518;2023-06-19T02:42:19;3.60;;;2.73;;
13693;SDS011;6919;52.344;14.518;2023-06-19T02:44:49;3.30;;;2.93;;
13693;SDS011;6919;52.344;14.518;2023-06-19T02:47:17;4.17;;;2.97;;
13693;SDS011;6919;52.344;14.518;2023-06-19T02:49:46;3.57;;;2.70;;
13693;SDS011;6919;52.344;14.518;2023-06-19T02:52:14;3.53;;;2.60;;
13693;SDS011;6919;52.344;14.518;2023-06-19T02:54:42;3.67;;;2.80;;
13693;SDS011;6919;52.344;14.518;2023-06-19T02:57:11;3.10;;;2.30;;
13693;SDS011;6919;52.344;14.518;2023-06-19T02:59:39;3.40;;;2.93;;
13693;SDS011;6919;52.344;14.518;2023-06-19T03:02:09;3.00;;;2.70;;
13693;SDS011;6919;52.344;14.518;2023-06-19T03:04:37;3.00;;;2.70;;
13693;SDS011;6919;52.344;14.518;2023-06-19T03:07:08;3.17;;;2.77;;
13693;SDS011;6919;52.344;14.518;2023-06-19T03:09:36;3.70;;;2.50;;
13693;SDS011;6919;52.344;14.518;2023-06-19T03:12:04;3.07;;;2.77;;
13693;SDS011;6919;52.344;14.518;2023-06-19T03:14:33;3.20;;;2.40;;
13693;SDS011;6919;52.344;14.518;2023-06-19T03:17:02;3.47;;;2.80;;
13693;SDS011;6919;52.344;14.518;2023-06-19T03:19:32;3.40;;;2.60;;
13693;SDS011;6919;52.344;14.518;2023-06-19T03:22:00;3.30;;;2.60;;
13693;SDS011;6919;52.344;14.518;2023-06-19T03:24:29;4.93;;;2.70;;
13693;SDS011;6919;52.344;14.518;2023-06-19T03:26:58;4.50;;;3.10;;
13693;SDS011;6919;52.344;14.518;2023-06-19T03:29:26;3.37;;;2.80;;
13693;SDS011;6919;52.344;14.518;2023-06-19T03:31:54;6.47;;;2.77;;
13693;SDS011;6919;52.344;14.518;2023-06-19T03:34:22;4.27;;;3.00;;
13693;SDS011;6919;52.344;14.518;2023-06-19T03:36:52;4.13;;;2.87;;
13693;SDS011;6919;52.344;14.518;2023-06-19T03:39:20;3.50;;;3.20;;
13693;SDS011;6919;52.344;14.518;2023-06-19T03:41:49;2.87;;;2.57;;
13693;SDS011;6919;52.344;14.518;2023-06-19T03:44:17;4.90;;;3.20;;
13693;SDS011;6919;52.344;14.518;2023-06-19T03:46:45;3.13;;;2.80;;
13693;SDS011;6919;52.344;14.518;2023-06-19T03:49:14;3.63;;;2.83;;
13693;SDS011;6919;52.344;14.518;2023-06-19T03:51:42;4.87;;;3.37;;
13693;SDS011;6919;52.344;14.518;2023-06-19T03:54:12;5.57;;;3.17;;
13693;SDS011;6919;52.344;14.518;2023-06-19T03:56:40;6.17;;;3.47;;
13693;SDS011;6919;52.344;14.518;2023-06-19T03:59:09;4.00;;;3.60;;
13693;SDS011;6919;52.344;14.518;2023-06-19T04:01:37;4.20;;;2.97;;
13693;SDS011;6919;52.344;14.518;2023-06-19T04:04:07;3.33;;;3.00;;
13693;SDS011;6919;52.344;14.518;2023-06-19T04:06:35;4.10;;;2.90;;
13693;SDS011;6919;52.344;14.518;2023-06-19T04:09:03;5.10;;;3.00;;
13693;SDS011;6919;52.344;14.518;2023-06-19T04:11:33;3.83;;;3.13;;
13693;SDS011;6919;52.344;14.518;2023-06-19T04:14:02;4.87;;;3.33;;
13693;SDS011;6919;52.344;14.518;2023-06-19T04:16:30;3.60;;;3.07;;
13693;SDS011;6919;52.344;14.518;2023-06-19T04:18:58;4.93;;;3.30;;
13693;SDS011;6919;52.344;14.518;2023-06-19T04:21:27;3.40;;;3.10;;
13693;SDS011;6919;52.344;14.518;2023-06-19T04:23:55;4.83;;;3.13;;
13693;SDS011;6919;52.344;14.518;2023-06-19T04:26:23;4.00;;;2.87;;
13693;SDS011;6919;52.344;14.518;2023-06-19T04:28:53;3.00;;;2.63;;
13693;SDS011;6919;52.344;14.518;2023-06-19T04:31:22;3.17;;;2.70;;
13693;SDS011;6919;52.344;14.518;2023-06-19T04:33:52;3.43;;;3.10;;
13693;SDS011;6919;52.344;14.518;2023-06-19T04:36:22;3.83;;;2.80;;
13693;SDS011;6919;52.344;14.518;2023-06-19T04:38:50;8.77;;;2.67;;
13693;SDS011;6919;52.344;14.518;2023-06-19T04:41:19;3.40;;;3.10;;
13693;SDS011;6919;52.344;14.518;2023-06-19T04:43:48;3.93;;;3.07;;
13693;SDS011;6919;52.344;14.518;2023-06-19T04:46:17;3.50;;;2.67;;
13693;SDS011;6919;52.344;14.518;2023-06-19T04:48:47;3.97;;;3.30;;
13693;SDS011;6919;52.344;14.518;2023-06-19T04:51:16;5.47;;;3.60;;
13693;SDS011;6919;52.344;14.518;2023-06-19T04:53:47;3.80;;;3.30;;
13693;SDS011;6919;52.344;14.518;2023-06-19T04:56:15;5.53;;;3.40;;
13693;SDS011;6919;52.344;14.518;2023-06-19T04:58:44;4.07;;;3.13;;
13693;SDS011;6919;52.344;14.518;2023-06-19T05:01:13;3.87;;;2.83;;
13693;SDS011;6919;52.344;14.518;2023-06-19T05:03:44;4.33;;;3.43;;
13693;SDS011;6919;52.344;14.518;2023-06-19T05:06:13;4.37;;;3.27;;
13693;SDS011;6919;52.344;14.518;2023-06-19T05:08:41;3.73;;;3.27;;
13693;SDS011;6919;52.344;14.518;2023-06-19T05:11:10;3.10;;;2.77;;
13693;SDS011;6919;52.344;14.518;2023-06-19T05:13:38;4.40;;;3.87;;
13693;SDS011;6919;52.344;14.518;2023-06-19T05:16:06;3.93;;;2.53;;
13693;SDS011;6919;52.344;14.518;2023-06-19T05:18:35;3.80;;;2.83;;
13693;SDS011;6919;52.344;14.518;2023-06-19T05:21:04;4.87;;;3.00;;
13693;SDS011;6919;52.344;14.518;2023-06-19T05:23:33;3.20;;;2.83;;
13693;SDS011;6919;52.344;14.518;2023-06-19T05:26:02;5.97;;;3.43;;
13693;SDS011;6919;52.344;14.518;2023-06-19T05:28:31;3.70;;;3.23;;
13693;SDS011;6919;52.344;14.518;2023-06-19T05:30:59;7.30;;;4.00;;
13693;SDS011;6919;52.344;14.518;2023-06-19T05:33:27;3.80;;;3.00;;
13693;SDS011;6919;52.344;14.518;2023-06-19T05:35:56;3.90;;;2.97;;
13693;SDS011;6919;52.344;14.518;2023-06-19T05:38:25;4.33;;;3.37;;
13693;SDS011;6919;52.344;14.518;2023-06-19T05:40:56;3.23;;;2.93;;
13693;SDS011;6919;52.344;14.518;2023-06-19T05:43:25;4.43;;;3.53;;
13693;SDS011;6919;52.344;14.518;2023-06-19T05:45:53;3.87;;;2.93;;
13693;SDS011;6919;52.344;14.518;2023-06-19T05:48:25;6.17;;;3.50;;
13693;SDS011;6919;52.344;14.518;2023-06-19T05:50:53;3.97;;;3.00;;
13693;SDS011;6919;52.344;14.518;2023-06-19T05:53:21;4.43;;;3.47;;
13693;SDS011;6919;52.344;14.518;2023-06-19T05:55:51;3.17;;;2.87;;
13693;SDS011;6919;52.344;14.518;2023-06-19T05:58:19;4.67;;;3.47;;
13693;SDS011;6919;52.344;14.518;2023-06-19T06:00:48;3.40;;;2.93;;
13693;SDS011;6919;52.344;14.518;2023-06-19T06:03:16;4.67;;;3.17;;
13693;SDS011;6919;52.344;14.518;2023-06-19T06:05:45;3.90;;;3.40;;
13693;SDS011;6919;52.344;14.518;2023-06-19T06:08:15;6.53;;;3.40;;
13693;SDS011;6919;52.344;14.518;2023-06-19T06:10:43;5.10;;;3.93;;
13693;SDS011;6919;52.344;14.518;2023-06-19T06:13:13;5.77;;;3.43;;
13693;SDS011;6919;52.344;14.518;2023-06-19T06:15:41;4.00;;;3.37;;
13693;SDS011;6919;52.344;14.518;2023-06-19T06:18:10;4.27;;;3.53;;
13693;SDS011;6919;52.344;14.518;2023-06-19T06:20:38;4.53;;;3.60;;
13693;SDS011;6919;52.344;14.518;2023-06-19T06:23:07;4.13;;;3.70;;
13693;SDS011;6919;52.344;14.518;2023-06-19T06:25:35;5.07;;;3.40;;
13693;SDS011;6919;52.344;14.518;2023-06-19T06:28:03;5.20;;;3.97;;
13693;SDS011;6919;52.344;14.518;2023-06-19T06:30:33;4.77;;;4.10;;
13693;SDS011;6919;52.344;14.518;2023-06-19T06:33:02;5.40;;;4.07;;
13693;SDS011;6919;52.344;14.518;2023-06-19T06:35:30;5.73;;;4.27;;
13693;SDS011;6919;52.344;14.518;2023-06-19T06:37:59;6.63;;;4.57;;
13693;SDS011;6919;52.344;14.518;2023-06-19T06:40:28;4.87;;;3.63;;
13693;SDS011;6919;52.344;14.518;2023-06-19T06:42:57;8.23;;;4.27;;
13693;SDS011;6919;52.344;14.518;2023-06-19T06:45:25;6.10;;;4.10;;
13693;SDS011;6919;52.344;14.518;2023-06-19T06:47:55;5.83;;;4.10;;
13693;SDS011;6919;52.344;14.518;2023-06-19T06:50:23;5.93;;;3.77;;
13693;SDS011;6919;52.344;14.518;2023-06-19T06:52:52;3.07;;;2.77;;
13693;SDS011;6919;52.344;14.518;2023-06-19T06:55:20;6.43;;;3.93;;
13693;SDS011;6919;52.344;14.518;2023-06-19T06:57:49;5.83;;;4.40;;
13693;SDS011;6919;52.344;14.518;2023-06-19T07:00:17;4.10;;;3.43;;
13693;SDS011;6919;52.344;14.518;2023-06-19T07:02:46;4.30;;;3.27;;
13693;SDS011;6919;52.344;14.518;2023-06-19T07:05:18;4.60;;;3.50;;
13693;SDS011;6919;52.344;14.518;2023-06-19T07:07:46;5.73;;;4.27;;
13693;SDS011;6919;52.344;14.518;2023-06-19T07:10:15;4.27;;;3.27;;
13693;SDS011;6919;52.344;14.518;2023-06-19T07:12:44;4.10;;;3.70;;
13693;SDS011;6919;52.344;14.518;2023-06-19T07:15:13;3.93;;;3.27;;
13693;SDS011;6919;52.344;14.518;2023-06-19T07:17:43;4.97;;;3.90;;
13693;SDS011;6919;52.344;14.518;2023-06-19T07:20:12;4.77;;;3.90;;
13693;SDS011;6919;52.344;14.518;2023-06-19T07:22:42;4.67;;;3.90;;
13693;SDS011;6919;52.344;14.518;2023-06-19T07:25:12;5.43;;;3.73;;
13693;SDS011;6919;52.344;14.518;2023-06-19T07:27:41;3.77;;;3.17;;
13693;SDS011;6919;52.344;14.518;2023-06-19T07:30:09;5.00;;;3.57;;
13693;SDS011;6919;52.344;14.518;2023-06-19T07:32:42;7.60;;;3.70;;
13693;SDS011;6919;52.344;14.518;2023-06-19T07:35:10;5.83;;;3.43;;
13693;SDS011;6919;52.344;14.518;2023-06-19T07:37:39;4.30;;;3.90;;
13693;SDS011;6919;52.344;14.518;2023-06-19T07:40:09;5.00;;;3.67;;
13693;SDS011;6919;52.344;14.518;2023-06-19T07:42:39;6.80;;;4.30;;
13693;SDS011;6919;52.344;14.518;2023-06-19T07:45:10;4.17;;;3.43;;
13693;SDS011;6919;52.344;14.518;2023-06-19T07:47:40;4.90;;;4.33;;
13693;SDS011;6919;52.344;14.518;2023-06-19T07:50:09;5.17;;;4.53;;
13693;SDS011;6919;52.344;14.518;2023-06-19T07:52:37;6.40;;;4.37;;
13693;SDS011;6919;52.344;14.518;2023-06-19T07:55:06;4.33;;;3.70;;
13693;SDS011;6919;52.344;14.518;2023-06-19T07:57:36;4.20;;;3.57;;
13693;SDS011;6919;52.344;14.518;2023-06-19T08:00:05;4.47;;;3.73;;
13693;SDS011;6919;52.344;14.518;2023-06-19T08:02:37;7.23;;;4.20;;
13693;SDS011;6919;52.344;14.518;2023-06-19T08:05:06;7.00;;;3.97;;
13693;SDS011;6919;52.344;14.518;2023-06-19T08:07:36;5.07;;;4.07;;
13693;SDS011;6919;52.344;14.518;2023-06-19T08:10:05;5.13;;;3.83;;
13693;SDS011;6919;52.344;14.518;2023-06-19T08:12:42;6.10;;;3.70;;
13693;SDS011;6919;52.344;14.518;2023-06-19T08:15:11;5.73;;;4.37;;
13693;SDS011;6919;52.344;14.518;2023-06-19T08:17:40;4.33;;;3.53;;
13693;SDS011;6919;52.344;14.518;2023-06-19T08:20:10;4.73;;;3.90;;
13693;SDS011;6919;52.344;14.518;2023-06-19T08:22:39;5.67;;;4.37;;
13693;SDS011;6919;52.344;14.518;2023-06-19T08:25:08;4.53;;;3.80;;
13693;SDS011;6919;52.344;14.518;2023-06-19T08:27:36;5.10;;;3.77;;
13693;SDS011;6919;52.344;14.518;2023-06-19T08:30:07;4.33;;;3.93;;
13693;SDS011;6919;52.344;14.518;2023-06-19T08:32:35;3.37;;;3.07;;
13693;SDS011;6919;52.344;14.518;2023-06-19T08:35:04;4.83;;;4.00;;
13693;SDS011;6919;52.344;14.518;2023-06-19T08:37:36;5.70;;;3.67;;
13693;SDS011;6919;52.344;14.518;2023-06-19T08:40:04;4.90;;;3.93;;
13693;SDS011;6919;52.344;14.518;2023-06-19T08:42:35;4.60;;;3.40;;
13693;SDS011;6919;52.344;14.518;2023-06-19T08:45:07;3.93;;;3.53;;
13693;SDS011;6919;52.344;14.518;2023-06-19T08:47:36;5.17;;;3.27;;
13693;SDS011;6919;52.344;14.518;2023-06-19T08:50:05;4.20;;;3.30;;
13693;SDS011;6919;52.344;14.518;2023-06-19T08:52:34;4.97;;;3.80;;
13693;SDS011;6919;52.344;14.518;2023-06-19T08:55:03;4.10;;;3.20;;
13693;SDS011;6919;52.344;14.518;2023-06-19T08:57:33;4.00;;;3.57;;
13693;SDS011;6919;52.344;14.518;2023-06-19T09:00:03;4.13;;;3.73;;
13693;SDS011;6919;52.344;14.518;2023-06-19T09:02:38;4.70;;;3.50;;
13693;SDS011;6919;52.344;14.518;2023-06-19T09:05:12;3.63;;;3.13;;
13693;SDS011;6919;52.344;14.518;2023-06-19T09:07:42;4.97;;;3.90;;
13693;SDS011;6919;52.344;14.518;2023-06-19T09:10:15;3.63;;;3.33;;
13693;SDS011;6919;52.344;14.518;2023-06-19T09:12:55;4.33;;;3.50;;
13693;SDS011;6919;52.344;14.518;2023-06-19T09:15:29;4.40;;;3.50;;
13693;SDS011;6919;52.344;14.518;2023-06-19T09:18:01;4.13;;;3.40;;
13693;SDS011;6919;52.344;14.518;2023-06-19T09:20:31;4.30;;;3.40;;
13693;SDS011;6919;52.344;14.518;2023-06-19T09:23:02;3.50;;;2.97;;
13693;SDS011;6919;52.344;14.518;2023-06-19T09:25:30;3.95;;;3.45;;
13693;SDS011;6919;52.344;14.518;2023-06-19T09:27:59;7.13;;;3.43;;
13693;SDS011;6919;52.344;14.518;2023-06-19T09:30:27;4.45;;;3.65;;
13693;SDS011;6919;52.344;14.518;2023-06-19T09:32:55;4.10;;;3.40;;
13693;SDS011;6919;52.344;14.518;2023-06-19T09:35:35;4.10;;;3.20;;
13693;SDS011;6919;52.344;14.518;2023-06-19T09:38:03;3.97;;;3.20;;
13693;SDS011;6919;52.344;14.518;2023-06-19T09:40:32;5.17;;;3.50;;
13693;SDS011;6919;52.344;14.518;2023-06-19T09:43:01;3.25;;;2.95;;
13693;SDS011;6919;52.344;14.518;2023-06-19T09:45:34;3.80;;;3.33;;
13693;SDS011;6919;52.344;14.518;2023-06-19T09:48:03;3.73;;;2.97;;
13693;SDS011;6919;52.344;14.518;2023-06-19T09:50:38;3.45;;;3.15;;
13693;SDS011;6919;52.344;14.518;2023-06-19T09:53:08;4.05;;;3.22;;
13693;SDS011;6919;52.344;14.518;2023-06-19T09:55:37;3.88;;;3.22;;
13693;SDS011;6919;52.344;14.518;2023-06-19T09:58:06;4.20;;;3.42;;
13693;SDS011;6919;52.344;14.518;2023-06-19T10:00:35;4.72;;;2.97;;
13693;SDS011;6919;52.344;14.518;2023-06-19T10:03:10;4.22;;;3.17;;
13693;SDS011;6919;52.344;14.518;2023-06-19T10:05:41;3.42;;;3.00;;
13693;SDS011;6919;52.344;14.518;2023-06-19T10:08:10;2.88;;;2.60;;
13693;SDS011;6919;52.344;14.518;2023-06-19T10:10:45;3.60;;;2.78;;
13693;SDS011;6919;52.344;14.518;2023-06-19T10:13:15;2.78;;;2.50;;
13693;SDS011;6919;52.344;14.518;2023-06-19T10:15:44;3.50;;;2.67;;
13693;SDS011;6919;52.344;14.518;2023-06-19T10:18:14;4.22;;;2.85;;
13693;SDS011;6919;52.344;14.518;2023-06-19T10:20:46;2.75;;;2.47;;
13693;SDS011;6919;52.344;14.518;2023-06-19T10:23:15;2.40;;;2.20;;
13693;SDS011;6919;52.344;14.518;2023-06-19T10:25:47;3.10;;;2.53;;
13693;SDS011;6919;52.344;14.518;2023-06-19T10:28:23;3.75;;;2.55;;
13693;SDS011;6919;52.344;14.518;2023-06-19T10:30:54;2.88;;;2.47;;
13693;SDS011;6919;52.344;14.518;2023-06-19T10:33:23;2.80;;;2.22;;
13693;SDS011;6919;52.344;14.518;2023-06-19T10:35:55;2.95;;;2.65;;
13693;SDS011;6919;52.344;14.518;2023-06-19T10:38:23;2.47;;;2.28;;
13693;SDS011;6919;52.344;14.518;2023-06-19T10:40:52;3.10;;;2.50;;
13693;SDS011;6919;52.344;14.518;2023-06-19T10:43:20;2.53;;;2.28;;
13693;SDS011;6919;52.344;14.518;2023-06-19T10:45:54;3.05;;;2.47;;
13693;SDS011;6919;52.344;14.518;2023-06-19T10:48:23;2.78;;;2.42;;
13693;SDS011;6919;52.344;14.518;2023-06-19T10:50:52;2.63;;;2.40;;
13693;SDS011;6919;52.344;14.518;2023-06-19T10:53:25;2.88;;;2.45;;
13693;SDS011;6919;52.344;14.518;2023-06-19T10:55:55;2.97;;;1.90;;
13693;SDS011;6919;52.344;14.518;2023-06-19T10:58:23;2.75;;;2.22;;
13693;SDS011;6919;52.344;14.518;2023-06-19T11:00:53;2.35;;;2.15;;
13693;SDS011;6919;52.344;14.518;2023-06-19T11:03:21;3.78;;;2.85;;
13693;SDS011;6919;52.344;14.518;2023-06-19T11:05:50;2.97;;;2.67;;
13693;SDS011;6919;52.344;14.518;2023-06-19T11:08:20;2.53;;;2.00;;
13693;SDS011;6919;52.344;14.518;2023-06-19T11:10:50;2.03;;;1.85;;
13693;SDS011;6919;52.344;14.518;2023-06-19T11:13:18;2.25;;;2.05;;
13693;SDS011;6919;52.344;14.518;2023-06-19T11:15:48;3.22;;;2.45;;
13693;SDS011;6919;52.344;14.518;2023-06-19T11:18:18;2.50;;;2.30;;
13693;SDS011;6919;52.344;14.518;2023-06-19T11:20:46;2.65;;;2.45;;
13693;SDS011;6919;52.344;14.518;2023-06-19T11:23:24;3.25;;;2.53;;
13693;SDS011;6919;52.344;14.518;2023-06-19T11:26:01;2.45;;;2.25;;
13693;SDS011;6919;52.344;14.518;2023-06-19T11:28:31;2.80;;;2.05;;
13693;SDS011;6919;52.344;14.518;2023-06-19T11:31:00;2.47;;;2.22;;
13693;SDS011;6919;52.344;14.518;2023-06-19T11:33:31;2.83;;;2.40;;
13693;SDS011;6919;52.344;14.518;2023-06-19T11:36:00;2.20;;;2.00;;
13693;SDS011;6919;52.344;14.518;2023-06-19T11:38:30;2.83;;;2.35;;
13693;SDS011;6919;52.344;14.518;2023-06-19T11:41:01;3.35;;;2.72;;
13693;SDS011;6919;52.344;14.518;2023-06-19T11:43:30;2.80;;;2.60;;
13693;SDS011;6919;52.344;14.518;2023-06-19T11:46:02;3.30;;;2.40;;
13693;SDS011;6919;52.344;14.518;2023-06-19T11:48:31;2.50;;;2.08;;
13693;SDS011;6919;52.344;14.518;2023-06-19T11:51:03;2.53;;;2.25;;
13693;SDS011;6919;52.344;14.518;2023-06-19T11:53:33;3.25;;;2.45;;
13693;SDS011;6919;52.344;14.518;2023-06-19T11:56:01;4.90;;;3.13;;
13693;SDS011;6919;52.344;14.518;2023-06-19T11:58:29;3.10;;;2.25;;
13693;SDS011;6919;52.344;14.518;2023-06-19T12:00:58;3.50;;;2.58;;
13693;SDS011;6919;52.344;14.518;2023-06-19T12:03:26;2.78;;;2.30;;
13693;SDS011;6919;52.344;14.518;2023-06-19T12:05:54;2.83;;;2.22;;
13693;SDS011;6919;52.344;14.518;2023-06-19T12:08:23;3.22;;;2.58;;
13693;SDS011;6919;52.344;14.518;2023-06-19T12:10:53;2.90;;;2.42;;
13693;SDS011;6919;52.344;14.518;2023-06-19T12:13:24;2.72;;;2.45;;
13693;SDS011;6919;52.344;14.518;2023-06-19T12:15:53;2.80;;;2.60;;
13693;SDS011;6919;52.344;14.518;2023-06-19T12:18:21;3.00;;;2.70;;
13693;SDS011;6919;52.344;14.518;2023-06-19T12:20:49;2.70;;;2.50;;
13693;SDS011;6919;52.344;14.518;2023-06-19T12:23:18;3.10;;;2.30;;
13693;SDS011;6919;52.344;14.518;2023-06-19T12:25:46;2.75;;;2.47;;
13693;SDS011;6919;52.344;14.518;2023-06-19T12:28:16;3.03;;;2.28;;
13693;SDS011;6919;52.344;14.518;2023-06-19T12:30:45;2.75;;;2.47;;
13693;SDS011;6919;52.344;14.518;2023-06-19T12:33:14;2.75;;;2.55;;
13693;SDS011;6919;52.344;14.518;2023-06-19T12:35:44;3.55;;;2.67;;
13693;SDS011;6919;52.344;14.518;2023-06-19T12:38:12;3.47;;;2.45;;
13693;SDS011;6919;52.344;14.518;2023-06-19T12:40:41;2.90;;;2.50;;
13693;SDS011;6919;52.344;14.518;2023-06-19T12:43:09;2.30;;;2.10;;
13693;SDS011;6919;52.344;14.518;2023-06-19T12:45:39;3.47;;;2.47;;
13693;SDS011;6919;52.344;14.518;2023-06-19T12:48:09;5.00;;;2.88;;
13693;SDS011;6919;52.344;14.518;2023-06-19T12:50:38;4.45;;;2.97;;
13693;SDS011;6919;52.344;14.518;2023-06-19T12:53:06;4.68;;;2.80;;
13693;SDS011;6919;52.344;14.518;2023-06-19T12:55:35;3.05;;;2.53;;
13693;SDS011;6919;52.344;14.518;2023-06-19T12:58:17;2.95;;;2.60;;
13693;SDS011;6919;52.344;14.518;2023-06-19T13:00:47;3.15;;;2.30;;
13693;SDS011;6919;52.344;14.518;2023-06-19T13:03:15;2.10;;;1.88;;
13693;SDS011;6919;52.344;14.518;2023-06-19T13:05:45;3.78;;;2.42;;
13693;SDS011;6919;52.344;14.518;2023-06-19T13:08:15;2.83;;;2.20;;
13693;SDS011;6919;52.344;14.518;2023-06-19T13:10:43;2.30;;;2.10;;
13693;SDS011;6919;52.344;14.518;2023-06-19T13:13:12;2.10;;;1.88;;
13693;SDS011;6919;52.344;14.518;2023-06-19T13:15:40;3.10;;;2.40;;
13693;SDS011;6919;52.344;14.518;2023-06-19T13:18:10;2.10;;;1.80;;
13693;SDS011;6919;52.344;14.518;2023-06-19T13:20:39;2.25;;;2.05;;
13693;SDS011;6919;52.344;14.518;2023-06-19T13:23:08;2.83;;;2.20;;
13693;SDS011;6919;52.344;14.518;2023-06-19T13:25:36;2.33;;;2.13;;
13693;SDS011;6919;52.344;14.518;2023-06-19T13:28:04;2.25;;;2.03;;
13693;SDS011;6919;52.344;14.518;2023-06-19T13:30:33;2.28;;;2.10;;
13693;SDS011;6919;52.344;14.518;2023-06-19T13:33:01;2.70;;;2.20;;
13693;SDS011;6919;52.344;14.518;2023-06-19T13:35:32;2.25;;;2.00;;
13693;SDS011;6919;52.344;14.518;2023-06-19T13:38:00;2.45;;;1.95;;
13693;SDS011;6919;52.344;14.518;2023-06-19T13:40:29;2.08;;;1.88;;
13693;SDS011;6919;52.344;14.518;2023-06-19T13:42:57;3.15;;;1.80;;
13693;SDS011;6919;52.344;14.518;2023-06-19T13:45:26;2.72;;;2.25;;
13693;SDS011;6919;52.344;14.518;2023-06-19T13:47:55;2.47;;;1.95;;
13693;SDS011;6919;52.344;14.518;2023-06-19T13:50:24;2.33;;;1.75;;
13693;SDS011;6919;52.344;14.518;2023-06-19T13:52:54;2.85;;;1.75;;
13693;SDS011;6919;52.344;14.518;2023-06-19T13:55:22;2.53;;;1.80;;
13693;SDS011;6919;52.344;14.518;2023-06-19T13:57:50;3.55;;;2.40;;
13693;SDS011;6919;52.344;14.518;2023-06-19T14:00:19;2.20;;;1.73;;
13693;SDS011;6919;52.344;14.518;2023-06-19T14:02:48;1.63;;;1.52;;
13693;SDS011;6919;52.344;14.518;2023-06-19T14:05:17;2.05;;;1.75;;
13693;SDS011;6919;52.344;14.518;2023-06-19T14:07:45;1.92;;;1.60;;
13693;SDS011;6919;52.344;14.518;2023-06-19T14:10:15;1.67;;;1.55;;
13693;SDS011;6919;52.344;14.518;2023-06-19T14:12:43;2.00;;;1.67;;
13693;SDS011;6919;52.344;14.518;2023-06-19T14:15:11;2.33;;;2.03;;
13693;SDS011;6919;52.344;14.518;2023-06-19T14:17:40;2.08;;;1.88;;
13693;SDS011;6919;52.344;14.518;2023-06-19T14:20:10;2.65;;;2.30;;
13693;SDS011;6919;52.344;14.518;2023-06-19T14:22:39;2.45;;;2.00;;
13693;SDS011;6919;52.344;14.518;2023-06-19T14:25:07;2.05;;;1.85;;
13693;SDS011;6919;52.344;14.518;2023-06-19T14:27:40;1.73;;;1.60;;
13693;SDS011;6919;52.344;14.518;2023-06-19T14:30:08;3.58;;;1.92;;
13693;SDS011;6919;52.344;14.518;2023-06-19T14:32:37;2.35;;;2.15;;
13693;SDS011;6919;52.344;14.518;2023-06-19T14:35:17;2.30;;;2.03;;
13693;SDS011;6919;52.344;14.518;2023-06-19T14:37:46;1.88;;;1.65;;
13693;SDS011;6919;52.344;14.518;2023-06-19T14:40:14;2.63;;;2.00;;
13693;SDS011;6919;52.344;14.518;2023-06-19T14:42:44;2.17;;;1.90;;
13693;SDS011;6919;52.344;14.518;2023-06-19T14:45:12;2.33;;;1.90;;
13693;SDS011;6919;52.344;14.518;2023-06-19T14:47:41;2.78;;;2.30;;
13693;SDS011;6919;52.344;14.518;2023-06-19T14:50:10;2.08;;;1.63;;
13693;SDS011;6919;52.344;14.518;2023-06-19T14:52:38;2.75;;;2.08;;
13693;SDS011;6919;52.344;14.518;2023-06-19T14:55:07;2.10;;;1.88;;
13693;SDS011;6919;52.344;14.518;2023-06-19T14:57:37;2.15;;;1.85;;
13693;SDS011;6919;52.344;14.518;2023-06-19T15:00:07;3.83;;;2.45;;
13693;SDS011;6919;52.344;14.518;2023-06-19T15:02:37;2.50;;;1.90;;